createdAt,value
2019-06-08T00:00:04.899Z,1007.91
2019-06-08T00:01:04.926Z,1007.88
2019-06-08T00:02:57.761Z,1007.90
2019-06-08T00:03:57.633Z,1007.86
2019-06-08T00:05:50.411Z,1007.87
2019-06-08T00:06:50.326Z,1007.84
2019-06-08T00:08:43.090Z,1007.83
2019-06-08T00:09:43.041Z,1007.86
2019-06-08T00:11:35.834Z,1007.83
2019-06-08T00:12:35.768Z,1007.86
2019-06-08T00:14:29.476Z,1007.84
2019-06-08T00:15:29.400Z,1007.82
2019-06-08T00:17:35.756Z,1007.86
2019-06-08T00:18:22.112Z,1007.88
2019-06-08T00:20:15.448Z,1007.91
2019-06-08T00:21:15.503Z,1007.91
2019-06-08T00:23:07.641Z,1008.03
2019-06-08T00:24:07.615Z,1008.04
2019-06-08T00:26:00.421Z,1008.01
2019-06-08T00:27:00.299Z,1008.01
2019-06-08T00:28:53.078Z,1007.92
2019-06-08T00:29:53.013Z,1007.96
2019-06-08T00:31:45.789Z,1008.14
2019-06-08T00:32:45.716Z,1008.15
2019-06-08T00:34:38.521Z,1008.06
2019-06-08T00:35:38.448Z,1008.04
2019-06-08T00:37:31.248Z,1008.12
2019-06-08T00:38:31.189Z,1008.22
2019-06-08T00:40:25.158Z,1008.27
2019-06-08T00:41:25.288Z,1008.24
2019-06-08T00:43:17.258Z,1008.29
2019-06-08T00:44:17.157Z,1008.35
2019-06-08T00:46:09.383Z,1008.32
2019-06-08T00:47:09.313Z,1008.32
2019-06-08T00:49:02.110Z,1008.37
2019-06-08T00:50:02.423Z,1008.40
2019-06-08T00:51:54.848Z,1008.45
2019-06-08T00:52:54.767Z,1008.46
2019-06-08T00:54:47.575Z,1008.53
2019-06-08T00:55:47.505Z,1008.54
2019-06-08T00:57:40.606Z,1008.55
2019-06-08T00:58:40.519Z,1008.51
2019-06-08T01:00:33.301Z,1008.63
2019-06-08T01:01:33.230Z,1008.53
2019-06-08T01:03:26.024Z,1008.50
2019-06-08T01:04:27.184Z,1008.52
2019-06-08T01:06:18.861Z,1008.56
2019-06-08T01:07:19.871Z,1008.62
2019-06-08T01:09:11.441Z,1008.66
2019-06-08T01:10:11.365Z,1008.65
2019-06-08T01:12:04.204Z,1008.66
2019-06-08T01:13:04.128Z,1008.65
2019-06-08T01:14:56.908Z,1008.80
2019-06-08T01:15:56.844Z,1008.79
2019-06-08T01:18:02.288Z,1008.81
2019-06-08T01:18:49.559Z,1008.82
2019-06-08T01:20:42.343Z,1008.83
2019-06-08T01:21:42.272Z,1008.78
2019-06-08T01:23:35.068Z,1008.79
2019-06-08T01:24:34.990Z,1008.78
2019-06-08T01:26:28.166Z,1008.83
2019-06-08T01:27:28.204Z,1008.85
2019-06-08T01:29:20.466Z,1008.90
2019-06-08T01:30:20.405Z,1008.92
2019-06-08T01:32:13.192Z,1008.92
2019-06-08T01:33:13.109Z,1008.95
2019-06-08T01:35:05.897Z,1008.97
2019-06-08T01:36:05.829Z,1009.08
2019-06-08T01:37:58.683Z,1009.19
2019-06-08T01:38:58.550Z,1009.22
2019-06-08T01:40:51.331Z,1009.23
2019-06-08T01:41:51.266Z,1009.25
2019-06-08T01:43:44.094Z,1009.27
2019-06-08T01:44:44.016Z,1009.33
2019-06-08T01:46:36.828Z,1009.27
2019-06-08T01:47:36.756Z,1009.33
2019-06-08T01:49:30.583Z,1009.36
2019-06-08T01:50:30.551Z,1009.35
2019-06-08T01:52:22.554Z,1009.42
2019-06-08T01:53:22.784Z,1009.39
2019-06-08T01:55:19.207Z,1009.64
2019-06-08T01:56:19.148Z,1009.58
2019-06-08T01:58:11.959Z,1009.78
2019-06-08T01:59:11.863Z,1009.88
2019-06-08T02:01:04.643Z,1009.85
2019-06-08T02:02:04.567Z,1009.95
2019-06-08T02:03:57.379Z,1010.10
2019-06-08T02:04:57.293Z,1010.15
2019-06-08T02:06:50.090Z,1010.16
2019-06-08T02:07:50.019Z,1010.15
2019-06-08T02:09:42.785Z,1010.12
2019-06-08T02:10:42.719Z,1010.09
2019-06-08T02:12:35.526Z,1010.11
2019-06-08T02:13:35.445Z,1010.07
2019-06-08T02:15:29.135Z,1010.09
2019-06-08T02:16:29.719Z,1010.13
2019-06-08T02:18:35.440Z,1010.28
2019-06-08T02:19:20.872Z,1010.23
2019-06-08T02:21:13.701Z,1010.34
2019-06-08T02:22:13.630Z,1010.34
2019-06-08T02:24:06.438Z,1010.46
2019-06-08T02:25:06.358Z,1010.47
2019-06-08T02:26:59.163Z,1010.57
2019-06-08T02:27:59.094Z,1010.61
2019-06-08T02:29:51.911Z,1010.75
2019-06-08T02:30:51.828Z,1010.78
2019-06-08T02:32:44.646Z,1010.76
2019-06-08T02:33:44.570Z,1010.81
2019-06-08T02:35:37.934Z,1010.92
2019-06-08T02:36:38.049Z,1011.01
2019-06-08T02:38:31.939Z,1011.02
2019-06-08T02:39:30.372Z,1010.95
2019-06-08T02:41:22.905Z,1011.07
2019-06-08T02:42:22.819Z,1011.12
2019-06-08T02:44:15.681Z,1011.04
2019-06-08T02:45:15.601Z,1011.06
2019-06-08T02:47:08.374Z,1011.02
2019-06-08T02:48:08.312Z,1011.04
2019-06-08T02:50:01.179Z,1011.00
2019-06-08T02:51:01.059Z,1010.97
2019-06-08T02:52:53.873Z,1010.97
2019-06-08T02:53:53.781Z,1010.96
2019-06-08T02:55:46.619Z,1010.96
2019-06-08T02:56:46.522Z,1011.01
2019-06-08T02:58:40.769Z,1010.91
2019-06-08T02:59:40.869Z,1010.94
2019-06-08T03:01:33.583Z,1011.18
2019-06-08T03:02:33.755Z,1011.22
2019-06-08T03:04:24.769Z,1011.33
2019-06-08T03:05:24.712Z,1011.30
2019-06-08T03:07:17.528Z,1011.34
2019-06-08T03:08:17.475Z,1011.44
2019-06-08T03:10:10.259Z,1011.45
2019-06-08T03:11:10.186Z,1011.46
2019-06-08T03:13:02.974Z,1011.42
2019-06-08T03:14:02.897Z,1011.41
2019-06-08T03:15:55.749Z,1011.40
2019-06-08T03:16:55.657Z,1011.37
2019-06-08T03:18:48.473Z,1011.42
2019-06-08T03:19:48.362Z,1011.38
2019-06-08T03:21:42.457Z,1011.38
2019-06-08T03:22:43.611Z,1011.40
2019-06-08T03:24:34.523Z,1011.40
2019-06-08T03:25:42.038Z,1011.30
2019-06-08T03:27:26.578Z,1011.20
2019-06-08T03:28:26.514Z,1011.20
2019-06-08T03:30:20.021Z,1011.26
2019-06-08T03:31:19.260Z,1011.25
2019-06-08T03:33:12.022Z,1011.31
2019-06-08T03:34:11.948Z,1011.37
2019-06-08T03:36:04.727Z,1011.42
2019-06-08T03:37:04.711Z,1011.45
2019-06-08T03:38:57.448Z,1011.26
2019-06-08T03:39:57.384Z,1011.23
2019-06-08T03:41:50.610Z,1011.27
2019-06-08T03:42:51.021Z,1011.25
2019-06-08T03:44:44.743Z,1011.29
2019-06-08T03:45:45.182Z,1011.39
2019-06-08T03:47:37.065Z,1011.39
2019-06-08T03:48:37.174Z,1011.33
2019-06-08T03:50:28.806Z,1011.30
2019-06-08T03:51:28.699Z,1011.24
2019-06-08T03:53:21.511Z,1011.18
2019-06-08T03:54:21.572Z,1011.13
2019-06-08T03:56:14.219Z,1011.14
2019-06-08T03:57:14.142Z,1011.01
2019-06-08T03:59:06.933Z,1010.99
2019-06-08T04:00:12.863Z,1010.96
2019-06-08T04:01:59.760Z,1010.91
2019-06-08T04:02:59.567Z,1010.92
2019-06-08T04:04:52.355Z,1011.01
2019-06-08T04:05:52.293Z,1011.07
2019-06-08T04:07:46.499Z,1011.13
2019-06-08T04:08:47.271Z,1011.13
2019-06-08T04:10:39.718Z,1011.15
2019-06-08T04:11:37.926Z,1011.20
2019-06-08T04:13:30.604Z,1011.14
2019-06-08T04:14:30.468Z,1011.16
2019-06-08T04:16:23.326Z,1011.28
2019-06-08T04:17:23.228Z,1011.32
2019-06-08T04:19:16.285Z,1011.30
2019-06-08T04:20:16.199Z,1011.24
2019-06-08T04:22:09.059Z,1011.23
2019-06-08T04:23:08.935Z,1011.31
2019-06-08T04:25:01.764Z,1011.25
2019-06-08T04:26:01.697Z,1011.21
2019-06-08T04:27:54.537Z,1011.21
2019-06-08T04:28:54.468Z,1011.25
2019-06-08T04:30:49.779Z,1011.34
2019-06-08T04:31:47.175Z,1011.39
2019-06-08T04:33:40.708Z,1011.62
2019-06-08T04:34:41.003Z,1011.64
2019-06-08T04:36:32.796Z,1011.68
2019-06-08T04:37:32.736Z,1011.76
2019-06-08T04:39:25.495Z,1011.94
2019-06-08T04:40:25.491Z,1011.98
2019-06-08T04:42:18.237Z,1011.97
2019-06-08T04:43:18.133Z,1012.01
2019-06-08T04:45:10.944Z,1011.88
2019-06-08T04:46:10.891Z,1011.91
2019-06-08T04:48:03.676Z,1011.91
2019-06-08T04:49:03.633Z,1011.96
2019-06-08T04:50:56.465Z,1012.04
2019-06-08T04:51:56.399Z,1012.05
2019-06-08T04:53:49.676Z,1012.05
2019-06-08T04:54:49.782Z,1012.09
2019-06-08T04:56:42.788Z,1012.13
2019-06-08T04:57:43.233Z,1012.16
2019-06-08T04:59:34.655Z,1012.24
2019-06-08T05:00:34.554Z,1012.34
2019-06-08T05:02:27.502Z,1012.28
2019-06-08T05:03:27.391Z,1012.22
2019-06-08T05:05:20.225Z,1012.29
2019-06-08T05:06:20.104Z,1012.26
2019-06-08T05:08:12.938Z,1012.37
2019-06-08T05:09:12.821Z,1012.35
2019-06-08T05:11:05.613Z,1012.39
2019-06-08T05:12:05.546Z,1012.38
2019-06-08T05:13:58.335Z,1012.49
2019-06-08T05:14:58.271Z,1012.52
2019-06-08T05:16:51.080Z,1012.56
2019-06-08T05:17:51.062Z,1012.57
2019-06-08T05:19:45.406Z,1012.69
2019-06-08T05:20:46.019Z,1012.82
2019-06-08T05:22:36.783Z,1012.82
2019-06-08T05:23:36.710Z,1012.80
2019-06-08T05:25:29.509Z,1012.88
2019-06-08T05:26:29.409Z,1012.85
2019-06-08T05:28:22.189Z,1012.90
2019-06-08T05:29:22.171Z,1012.85
2019-06-08T05:31:14.908Z,1013.01
2019-06-08T05:32:14.857Z,1013.04
2019-06-08T05:34:07.599Z,1013.04
2019-06-08T05:35:07.547Z,1012.98
2019-06-08T05:37:00.601Z,1012.98
2019-06-08T05:38:00.488Z,1012.90
2019-06-08T05:39:53.268Z,1012.97
2019-06-08T05:40:53.239Z,1013.03
2019-06-08T05:42:46.044Z,1013.05
2019-06-08T05:43:45.961Z,1013.06
2019-06-08T05:45:39.589Z,1013.03
2019-06-08T05:46:39.543Z,1013.01
2019-06-08T05:48:31.519Z,1012.99
2019-06-08T05:49:31.502Z,1012.97
2019-06-08T05:51:24.274Z,1013.03
2019-06-08T05:52:24.180Z,1013.05
2019-06-08T05:54:16.958Z,1013.10
2019-06-08T05:55:16.900Z,1013.12
2019-06-08T05:57:09.806Z,1013.15
2019-06-08T05:58:09.737Z,1013.16
2019-06-08T06:00:08.735Z,1013.22
2019-06-08T06:01:02.499Z,1013.26
2019-06-08T06:02:55.259Z,1013.24
2019-06-08T06:03:55.230Z,1013.18
2019-06-08T06:05:48.535Z,1013.27
2019-06-08T06:06:49.267Z,1013.37
2019-06-08T06:08:40.698Z,1013.38
2019-06-08T06:09:41.163Z,1013.38
2019-06-08T06:11:33.530Z,1013.39
2019-06-08T06:12:33.405Z,1013.35
2019-06-08T06:14:26.253Z,1013.33
2019-06-08T06:15:26.200Z,1013.32
2019-06-08T06:17:19.046Z,1013.30
2019-06-08T06:18:18.963Z,1013.35
2019-06-08T06:20:11.784Z,1013.29
2019-06-08T06:21:12.404Z,1013.26
2019-06-08T06:23:04.773Z,1013.20
2019-06-08T06:24:04.520Z,1013.27
2019-06-08T06:25:57.383Z,1013.31
2019-06-08T06:26:57.292Z,1013.32
2019-06-08T06:28:50.210Z,1013.36
2019-06-08T06:29:50.083Z,1013.43
2019-06-08T06:31:43.662Z,1013.36
2019-06-08T06:32:43.805Z,1013.37
2019-06-08T06:34:35.680Z,1013.35
2019-06-08T06:35:35.625Z,1013.34
2019-06-08T06:37:28.426Z,1013.35
2019-06-08T06:38:28.461Z,1013.37
2019-06-08T06:40:21.175Z,1013.39
2019-06-08T06:41:21.216Z,1013.52
2019-06-08T06:43:13.918Z,1013.69
2019-06-08T06:44:13.811Z,1013.67
2019-06-08T06:46:06.660Z,1013.56
2019-06-08T06:47:06.593Z,1013.47
2019-06-08T06:48:59.343Z,1013.46
2019-06-08T06:49:59.300Z,1013.45
2019-06-08T06:51:52.690Z,1013.60
2019-06-08T06:52:52.957Z,1013.64
2019-06-08T06:54:44.881Z,1013.55
2019-06-08T06:55:44.887Z,1013.62
2019-06-08T06:57:37.626Z,1013.61
2019-06-08T06:58:37.564Z,1013.69
2019-06-08T07:00:30.369Z,1013.90
2019-06-08T07:01:30.309Z,1013.90
2019-06-08T07:03:23.179Z,1013.91
2019-06-08T07:04:23.075Z,1013.92
2019-06-08T07:06:15.907Z,1014.00
2019-06-08T07:07:15.828Z,1014.12
2019-06-08T07:09:08.647Z,1014.12
2019-06-08T07:10:08.595Z,1014.19
2019-06-08T07:12:01.430Z,1014.35
2019-06-08T07:13:01.367Z,1014.24
2019-06-08T07:14:55.455Z,1014.18
2019-06-08T07:15:57.572Z,1014.25
2019-06-08T07:17:47.986Z,1014.15
2019-06-08T07:18:48.103Z,1014.13
2019-06-08T07:20:39.687Z,1014.07
2019-06-08T07:21:41.945Z,1014.02
2019-06-08T07:23:32.461Z,1014.09
2019-06-08T07:24:32.371Z,1014.09
2019-06-08T07:26:25.580Z,1014.19
2019-06-08T07:27:25.130Z,1014.19
2019-06-08T07:29:18.043Z,1014.20
2019-06-08T07:30:17.976Z,1014.21
2019-06-08T07:32:10.792Z,1014.31
2019-06-08T07:33:10.695Z,1014.28
2019-06-08T07:35:03.537Z,1014.35
2019-06-08T07:36:03.466Z,1014.32
2019-06-08T07:37:56.302Z,1014.33
2019-06-08T07:38:56.246Z,1014.37
2019-06-08T07:40:49.952Z,1014.39
2019-06-08T07:41:50.154Z,1014.43
2019-06-08T07:43:41.787Z,1014.50
2019-06-08T07:44:41.900Z,1014.51
2019-06-08T07:46:34.547Z,1014.63
2019-06-08T07:47:34.460Z,1014.59
2019-06-08T07:49:27.294Z,1014.67
2019-06-08T07:50:27.199Z,1014.65
2019-06-08T07:52:19.998Z,1014.68
2019-06-08T07:53:19.933Z,1014.60
2019-06-08T07:55:12.724Z,1014.44
2019-06-08T07:56:12.686Z,1014.45
2019-06-08T07:58:05.521Z,1014.52
2019-06-08T07:59:05.869Z,1014.49
2019-06-08T08:01:06.555Z,1014.60
2019-06-08T08:01:58.422Z,1014.58
2019-06-08T08:03:52.161Z,1014.71
2019-06-08T08:04:50.933Z,1014.71
2019-06-08T08:06:43.723Z,1014.82
2019-06-08T08:07:43.669Z,1014.81
2019-06-08T08:09:36.566Z,1014.89
2019-06-08T08:10:36.423Z,1014.90
2019-06-08T08:12:29.257Z,1015.01
2019-06-08T08:13:29.168Z,1015.08
2019-06-08T08:15:22.380Z,1015.01
2019-06-08T08:16:22.298Z,1015.05
2019-06-08T08:18:15.160Z,1015.02
2019-06-08T08:19:15.074Z,1015.17
2019-06-08T08:21:21.039Z,1015.09
2019-06-08T08:22:22.313Z,1015.13
2019-06-08T08:24:01.662Z,1014.99
2019-06-08T08:25:04.313Z,1014.97
2019-06-08T08:26:55.948Z,1015.00
2019-06-08T08:27:53.831Z,1014.84
2019-06-08T08:29:47.601Z,1014.79
2019-06-08T08:30:49.449Z,1014.85
2019-06-08T08:32:39.469Z,1014.92
2019-06-08T08:33:39.740Z,1014.89
2019-06-08T08:35:32.145Z,1014.87
2019-06-08T08:36:33.403Z,1014.84
2019-06-08T08:38:27.156Z,1014.84
2019-06-08T08:39:24.817Z,1014.88
2019-06-08T08:41:18.341Z,1014.95
2019-06-08T08:42:18.118Z,1014.92
2019-06-08T08:44:10.328Z,1014.84
2019-06-08T08:45:10.260Z,1014.72
2019-06-08T08:47:03.057Z,1014.74
2019-06-08T08:48:20.379Z,1014.70
2019-06-08T08:49:56.770Z,1014.71
2019-06-08T08:50:56.927Z,1014.55
2019-06-08T08:52:48.501Z,1014.53
2019-06-08T08:53:53.813Z,1014.56
2019-06-08T08:55:41.312Z,1014.53
2019-06-08T08:56:41.184Z,1014.52
2019-06-08T08:58:33.988Z,1014.46
2019-06-08T08:59:33.900Z,1014.50
2019-06-08T09:01:28.820Z,1014.29
2019-06-08T09:02:28.112Z,1014.23
2019-06-08T09:04:20.969Z,1014.03
2019-06-08T09:05:20.847Z,1014.19
2019-06-08T09:07:13.766Z,1014.50
2019-06-08T09:08:13.670Z,1014.62
2019-06-08T09:10:08.543Z,1014.75
2019-06-08T09:11:08.213Z,1014.89
2019-06-08T09:13:02.940Z,1014.95
2019-06-08T09:14:05.109Z,1015.04
2019-06-08T09:15:53.809Z,1015.00
2019-06-08T09:16:53.700Z,1015.16
2019-06-08T09:18:47.862Z,1015.13
2019-06-08T09:19:47.842Z,1015.20
2019-06-08T09:21:38.490Z,1015.26
2019-06-08T09:22:52.460Z,1015.22
2019-06-08T09:24:30.921Z,1015.23
2019-06-08T09:25:30.841Z,1015.24
2019-06-08T09:27:23.613Z,1015.34
2019-06-08T09:28:23.560Z,1015.25
2019-06-08T09:30:18.276Z,1015.26
2019-06-08T09:31:18.364Z,1015.24
2019-06-08T09:33:09.412Z,1015.31
2019-06-08T09:34:14.827Z,1015.35
2019-06-08T09:36:04.709Z,1015.44
2019-06-08T09:37:03.534Z,1015.42
2019-06-08T09:38:55.985Z,1015.51
2019-06-08T09:39:55.934Z,1015.50
2019-06-08T09:41:48.152Z,1015.35
2019-06-08T09:42:50.807Z,1015.21
2019-06-08T09:44:40.921Z,1015.10
2019-06-08T09:45:40.850Z,1015.14
2019-06-08T09:47:33.643Z,1015.22
2019-06-08T09:48:33.641Z,1015.30
2019-06-08T09:50:27.792Z,1015.47
2019-06-08T09:51:28.510Z,1015.55
2019-06-08T09:53:26.699Z,1015.56
2019-06-08T09:54:19.400Z,1015.54
2019-06-08T09:56:11.894Z,1015.09
2019-06-08T09:57:11.794Z,1014.98
2019-06-08T09:59:08.364Z,1015.18
2019-06-08T10:00:14.481Z,1015.51
2019-06-08T10:02:05.089Z,1015.74
2019-06-08T10:03:01.111Z,1015.72
2019-06-08T10:04:50.130Z,1015.83
2019-06-08T10:05:50.020Z,1015.87
2019-06-08T10:07:42.803Z,1015.79
2019-06-08T10:08:42.743Z,1015.86
2019-06-08T10:10:35.577Z,1015.89
2019-06-08T10:11:37.839Z,1015.96
2019-06-08T10:13:30.586Z,1015.80
2019-06-08T10:14:28.322Z,1015.65
2019-06-08T10:16:21.020Z,1015.87
2019-06-08T10:17:21.196Z,1015.73
2019-06-08T10:19:13.741Z,1015.75
2019-06-08T10:20:13.648Z,1015.69
2019-06-08T10:22:08.507Z,1015.60
2019-06-08T10:23:24.194Z,1015.63
2019-06-08T10:25:02.829Z,1015.55
2019-06-08T10:26:01.394Z,1015.64
2019-06-08T10:27:51.883Z,1015.71
2019-06-08T10:28:51.821Z,1015.71
2019-06-08T10:30:44.627Z,1015.70
2019-06-08T10:31:44.593Z,1015.64
2019-06-08T10:33:40.650Z,1015.48
2019-06-08T10:34:38.621Z,1015.43
2019-06-08T10:36:30.108Z,1015.29
2019-06-08T10:37:30.011Z,1015.37
2019-06-08T10:39:23.303Z,1015.49
2019-06-08T10:40:23.386Z,1015.40
2019-06-08T10:42:17.974Z,1015.53
2019-06-08T10:43:17.507Z,1015.42
2019-06-08T10:45:12.647Z,1015.39
2019-06-08T10:46:16.127Z,1015.36
2019-06-08T10:48:02.865Z,1015.40
2019-06-08T10:49:01.975Z,1015.42
2019-06-08T10:50:54.267Z,1015.54
2019-06-08T10:51:54.247Z,1015.58
2019-06-08T10:53:52.536Z,1015.58
2019-06-08T10:54:46.971Z,1015.65
2019-06-08T10:56:39.784Z,1015.63
2019-06-08T10:57:39.687Z,1015.62
2019-06-08T10:59:32.562Z,1015.61
2019-06-08T11:00:32.468Z,1015.72
2019-06-08T11:02:25.320Z,1015.60
2019-06-08T11:03:25.243Z,1015.56
2019-06-08T11:05:18.302Z,1015.57
2019-06-08T11:06:18.756Z,1015.54
2019-06-08T11:08:14.430Z,1015.50
2019-06-08T11:09:13.331Z,1015.57
2019-06-08T11:11:04.930Z,1015.56
2019-06-08T11:12:05.232Z,1015.54
2019-06-08T11:13:58.439Z,1015.59
2019-06-08T11:14:58.381Z,1015.54
2019-06-08T11:16:49.028Z,1015.43
2019-06-08T11:17:48.893Z,1015.46
2019-06-08T11:19:41.672Z,1015.52
2019-06-08T11:20:41.609Z,1015.59
2019-06-08T11:22:34.473Z,1015.52
2019-06-08T11:23:34.405Z,1015.43
2019-06-08T11:25:28.042Z,1015.36
2019-06-08T11:26:28.907Z,1015.22
2019-06-08T11:28:19.964Z,1015.30
2019-06-08T11:29:19.923Z,1015.30
2019-06-08T11:31:15.971Z,1015.23
2019-06-08T11:32:12.908Z,1015.34
2019-06-08T11:34:06.153Z,1015.55
2019-06-08T11:35:06.482Z,1015.40
2019-06-08T11:36:59.627Z,1015.39
2019-06-08T11:37:58.938Z,1015.53
2019-06-08T11:39:50.837Z,1015.42
2019-06-08T11:40:50.795Z,1015.34
2019-06-08T11:42:43.572Z,1015.53
2019-06-08T11:43:43.510Z,1015.59
2019-06-08T11:45:37.997Z,1015.45
2019-06-08T11:46:38.373Z,1015.46
2019-06-08T11:48:29.032Z,1015.49
2019-06-08T11:49:28.960Z,1015.46
2019-06-08T11:51:21.809Z,1015.47
2019-06-08T11:52:21.668Z,1015.40
2019-06-08T11:54:29.609Z,1015.51
2019-06-08T11:55:14.724Z,1015.45
2019-06-08T11:57:09.990Z,1015.49
2019-06-08T11:58:09.833Z,1015.54
2019-06-08T12:00:01.006Z,1015.60
2019-06-08T12:01:01.867Z,1015.65
2019-06-08T12:02:52.689Z,1015.55
2019-06-08T12:03:52.620Z,1015.59
2019-06-08T12:05:47.865Z,1015.55
2019-06-08T12:06:45.337Z,1015.55
2019-06-08T12:08:38.215Z,1015.56
2019-06-08T12:09:38.095Z,1015.67
2019-06-08T12:11:30.963Z,1015.71
2019-06-08T12:12:30.830Z,1015.69
2019-06-08T12:14:23.684Z,1015.57
2019-06-08T12:15:23.621Z,1015.56
2019-06-08T12:17:21.749Z,1015.58
2019-06-08T12:18:18.175Z,1015.59
2019-06-08T12:20:14.018Z,1015.68
2019-06-08T12:21:11.290Z,1015.66
2019-06-08T12:23:01.876Z,1015.67
2019-06-08T12:24:01.797Z,1015.66
2019-06-08T12:25:54.599Z,1015.71
2019-06-08T12:27:00.291Z,1015.80
2019-06-08T12:28:48.702Z,1015.73
2019-06-08T12:29:50.088Z,1015.76
2019-06-08T12:31:40.082Z,1015.69
2019-06-08T12:32:40.109Z,1015.76
2019-06-08T12:34:32.835Z,1015.76
2019-06-08T12:35:32.762Z,1015.65
2019-06-08T12:37:27.436Z,1015.69
2019-06-08T12:38:30.415Z,1015.68
2019-06-08T12:40:19.545Z,1015.64
2019-06-08T12:41:19.391Z,1015.59
2019-06-08T12:43:12.683Z,1015.52
2019-06-08T12:44:14.648Z,1015.54
2019-06-08T12:46:03.769Z,1015.57
2019-06-08T12:47:03.747Z,1015.50
2019-06-08T12:48:58.287Z,1015.46
2019-06-08T12:49:58.504Z,1015.58
2019-06-08T12:51:51.688Z,1015.65
2019-06-08T12:52:49.203Z,1015.59
2019-06-08T12:54:56.564Z,1015.64
2019-06-08T12:55:41.924Z,1015.64
2019-06-08T12:57:34.725Z,1015.68
2019-06-08T12:58:34.641Z,1015.66
2019-06-08T13:00:28.058Z,1015.49
2019-06-08T13:01:28.218Z,1015.55
2019-06-08T13:03:20.170Z,1015.63
2019-06-08T13:04:23.446Z,1015.59
2019-06-08T13:06:14.051Z,1015.55
2019-06-08T13:07:13.175Z,1015.55
2019-06-08T13:09:08.980Z,1015.54
2019-06-08T13:10:06.516Z,1015.62
2019-06-08T13:11:59.542Z,1015.55
2019-06-08T13:12:59.489Z,1015.50
2019-06-08T13:14:52.135Z,1015.36
2019-06-08T13:15:52.047Z,1015.52
2019-06-08T13:17:44.856Z,1015.48
2019-06-08T13:18:44.772Z,1015.49
2019-06-08T13:20:38.942Z,1015.50
2019-06-08T13:21:38.464Z,1015.65
2019-06-08T13:23:30.520Z,1015.63
2019-06-08T13:24:30.487Z,1015.63
2019-06-08T13:26:27.890Z,1015.52
2019-06-08T13:27:23.360Z,1015.59
2019-06-08T13:29:15.956Z,1015.60
2019-06-08T13:30:19.733Z,1015.62
2019-06-08T13:32:09.743Z,1015.59
2019-06-08T13:33:09.902Z,1015.48
2019-06-08T13:35:01.406Z,1015.67
2019-06-08T13:36:01.334Z,1015.65
2019-06-08T13:37:54.102Z,1015.67
2019-06-08T13:38:54.046Z,1015.79
2019-06-08T13:40:48.439Z,1015.64
2019-06-08T13:41:48.212Z,1015.68
2019-06-08T13:43:40.584Z,1015.67
2019-06-08T13:44:39.472Z,1015.64
2019-06-08T13:46:32.263Z,1015.68
2019-06-08T13:47:32.201Z,1015.64
2019-06-08T13:49:27.934Z,1015.74
2019-06-08T13:50:24.934Z,1015.77
2019-06-08T13:52:19.059Z,1015.61
2019-06-08T13:53:20.683Z,1015.67
2019-06-08T13:55:10.509Z,1015.74
2019-06-08T13:56:10.413Z,1015.62
2019-06-08T13:58:03.187Z,1015.84
2019-06-08T13:59:03.126Z,1015.71
2019-06-08T14:00:57.424Z,1015.72
2019-06-08T14:01:57.815Z,1015.78
2019-06-08T14:03:49.976Z,1015.83
2019-06-08T14:04:49.195Z,1015.88
2019-06-08T14:06:41.403Z,1015.77
2019-06-08T14:07:41.370Z,1015.80
2019-06-08T14:09:34.127Z,1015.83
2019-06-08T14:10:34.057Z,1015.81
2019-06-08T14:12:30.609Z,1015.91
2019-06-08T14:13:33.899Z,1015.65
2019-06-08T14:15:19.632Z,1015.77
2019-06-08T14:16:21.562Z,1015.81
2019-06-08T14:18:12.323Z,1015.87
2019-06-08T14:19:12.261Z,1015.84
2019-06-08T14:21:05.122Z,1016.00
2019-06-08T14:22:04.983Z,1016.02
2019-06-08T14:23:58.733Z,1015.90
2019-06-08T14:24:57.716Z,1016.02
2019-06-08T14:26:50.521Z,1016.09
2019-06-08T14:27:50.443Z,1016.09
2019-06-08T14:29:43.251Z,1015.99
2019-06-08T14:30:43.186Z,1015.89
2019-06-08T14:32:38.115Z,1016.08
2019-06-08T14:33:38.030Z,1016.00
2019-06-08T14:35:28.746Z,1016.04
2019-06-08T14:36:29.163Z,1015.98
2019-06-08T14:38:25.528Z,1015.97
2019-06-08T14:39:22.824Z,1015.94
2019-06-08T14:41:14.218Z,1016.01
2019-06-08T14:42:14.155Z,1016.09
2019-06-08T14:44:08.319Z,1016.03
2019-06-08T14:45:08.208Z,1016.04
2019-06-08T14:46:59.657Z,1016.11
2019-06-08T14:47:59.579Z,1016.04
2019-06-08T14:49:52.382Z,1016.11
2019-06-08T14:50:52.307Z,1016.10
2019-06-08T14:52:45.100Z,1016.14
2019-06-08T14:53:45.026Z,1016.14
2019-06-08T14:55:38.636Z,1016.03
2019-06-08T14:56:37.771Z,1016.09
2019-06-08T14:58:34.834Z,1016.15
2019-06-08T14:59:31.791Z,1016.16
2019-06-08T15:01:24.590Z,1016.17
2019-06-08T15:02:23.540Z,1016.17
2019-06-08T15:04:16.046Z,1016.02
2019-06-08T15:05:18.231Z,1016.14
2019-06-08T15:07:09.639Z,1016.23
2019-06-08T15:08:08.704Z,1016.29
2019-06-08T15:10:01.574Z,1016.27
2019-06-08T15:11:01.442Z,1016.27
2019-06-08T15:12:54.284Z,1016.23
2019-06-08T15:13:54.211Z,1016.24
2019-06-08T15:15:46.995Z,1016.20
2019-06-08T15:16:49.388Z,1016.21
2019-06-08T15:18:39.692Z,1016.26
2019-06-08T15:19:39.639Z,1016.24
2019-06-08T15:21:33.072Z,1016.23
2019-06-08T15:22:32.396Z,1016.23
2019-06-08T15:24:29.002Z,1016.14
2019-06-08T15:25:27.348Z,1016.17
2019-06-08T15:27:21.541Z,1016.36
2019-06-08T15:28:18.513Z,1016.34
2019-06-08T15:30:11.146Z,1016.34
2019-06-08T15:31:11.065Z,1016.44
2019-06-08T15:33:03.862Z,1016.40
2019-06-08T15:34:03.806Z,1016.48
2019-06-08T15:35:57.501Z,1016.36
2019-06-08T15:36:57.568Z,1016.39
2019-06-08T15:38:49.258Z,1016.33
2019-06-08T15:39:51.443Z,1016.51
2019-06-08T15:41:41.968Z,1016.47
2019-06-08T15:42:41.895Z,1016.50
2019-06-08T15:44:34.672Z,1016.43
2019-06-08T15:45:34.611Z,1016.44
2019-06-08T15:47:28.238Z,1016.51
2019-06-08T15:48:29.411Z,1016.51
2019-06-08T15:50:20.090Z,1016.49
2019-06-08T15:51:20.025Z,1016.50
2019-06-08T15:53:12.803Z,1016.43
2019-06-08T15:54:12.733Z,1016.42
2019-06-08T15:56:05.529Z,1016.58
2019-06-08T15:57:05.473Z,1016.57
2019-06-08T15:58:58.809Z,1016.54
2019-06-08T15:59:58.632Z,1016.56
2019-06-08T16:01:50.979Z,1016.60
2019-06-08T16:02:50.894Z,1016.49
2019-06-08T16:04:43.666Z,1016.56
2019-06-08T16:05:43.604Z,1016.65
2019-06-08T16:07:36.394Z,1016.61
2019-06-08T16:08:37.950Z,1016.61
2019-06-08T16:10:30.236Z,1016.63
2019-06-08T16:11:30.218Z,1016.63
2019-06-08T16:13:21.820Z,1016.55
2019-06-08T16:14:21.753Z,1016.58
2019-06-08T16:16:14.555Z,1016.57
2019-06-08T16:17:14.489Z,1016.65
2019-06-08T16:19:07.294Z,1016.42
2019-06-08T16:20:07.208Z,1016.56
2019-06-08T16:21:59.990Z,1016.54
2019-06-08T16:22:59.918Z,1016.44
2019-06-08T16:24:52.695Z,1016.54
2019-06-08T16:25:52.678Z,1016.49
2019-06-08T16:27:45.434Z,1016.61
2019-06-08T16:28:45.359Z,1016.54
2019-06-08T16:30:39.362Z,1016.63
2019-06-08T16:31:39.304Z,1016.65
2019-06-08T16:33:31.181Z,1016.59
2019-06-08T16:34:31.367Z,1016.70
2019-06-08T16:36:23.640Z,1016.60
2019-06-08T16:37:23.518Z,1016.64
2019-06-08T16:39:16.369Z,1016.67
2019-06-08T16:40:16.261Z,1016.67
2019-06-08T16:42:09.111Z,1016.64
2019-06-08T16:43:09.043Z,1016.61
2019-06-08T16:45:01.933Z,1016.68
2019-06-08T16:46:01.795Z,1016.75
2019-06-08T16:47:54.609Z,1016.73
2019-06-08T16:48:54.528Z,1016.73
2019-06-08T16:50:47.317Z,1016.79
2019-06-08T16:51:47.244Z,1016.79
2019-06-08T16:53:40.125Z,1016.73
2019-06-08T16:54:39.978Z,1016.76
2019-06-08T16:56:34.025Z,1016.74
2019-06-08T16:57:36.049Z,1016.74
2019-06-08T16:59:25.493Z,1016.75
2019-06-08T17:00:37.180Z,1016.73
2019-06-08T17:02:18.196Z,1016.70
2019-06-08T17:03:18.122Z,1016.77
2019-06-08T17:05:10.910Z,1016.88
2019-06-08T17:06:10.844Z,1016.79
2019-06-08T17:08:03.652Z,1016.79
2019-06-08T17:09:03.562Z,1016.69
2019-06-08T17:10:56.337Z,1016.75
2019-06-08T17:11:56.276Z,1016.79
2019-06-08T17:13:49.087Z,1016.84
2019-06-08T17:14:49.037Z,1016.84
2019-06-08T17:16:41.838Z,1016.80
2019-06-08T17:17:41.763Z,1016.86
2019-06-08T17:19:34.557Z,1016.88
2019-06-08T17:20:34.472Z,1016.83
2019-06-08T17:22:27.255Z,1016.97
2019-06-08T17:23:27.191Z,1016.96